Aeroporto :
LOGIN :

Iscrizione | Disclaimer

   EN    FR    IT 

 










Sommario :    VFR   VFR Marginale   IFR   IFR Intensivo   IFR Molto Intensivo
Visibilità : 
Base nubi : 
>= 8 km
>= 3000ft
5 / 8 km
1000 / 3000 ft
1500m / 5 km
500 / 1000 ft
800 / 1500m
200 / 500 ft
< 800m
< 200 ft
Simboli :   Temporali  Nebbia  Neve Forte  Precipitazioni Forti  Vento > 20 kt
SIGMETs :   Varie  Temporali  Ghiacco  Turbolenza  Onda orograficha  Ceneri Vulcaniche






- Altitudine del aeroporto : 1682 ft
- Codice IATA : VIT


LEVT - Vitoria Gasteiz

ULTIMO METAR :
  • 250400Z 27001KT 8000 FEW005 07/07 Q1016

METARs OBSOLETI :
  • 250330Z 02002KT 8000 FEW005 07/07 Q1016
  • 250300Z 00000KT 8000 R04/1400D R22/P2000 FEW003 08/07 Q1016
  • 250230Z VRB01KT 8000 FEW003 08/07 Q1017
  • 250200Z VRB01KT 8000 FEW003 08/08 Q1017
  • 250130Z 00000KT 8000 FEW075 09/09 Q1017
  • 250030Z 05002KT 9999 FEW075 10/09 Q1017
  • 250000Z 03002KT 9999 FEW075 11/10 Q1018
  • 242330Z 08002KT 9999 FEW075 11/10 Q1018

TAF TAF LEVT
Valido dal 25 a 00 ore il 26 a 00 ore UTC


242300Z 2500/2524 VRB03KT 9999 FEW060 TX27/2514Z TN08/2506Z
TEMPO 2500/2509 3000 BCFG BKN005
PROB40
TEMPO 2500/2508 0350 FG VV001
PROB40
TEMPO 2509/2515 23010KT
TEMPO 2514/2520 02012KT
PROB30
TEMPO 2514/2518 02015G25KT



MetMap, La meteo Aeronautica in un colpo d'occhio ! - Copyright ORBIFLY Dicembre 2007 - Disclaimer

ORBIFLY MET'MAP TEAM :

Programmazione e sviluppo : Alexandra Zaïnal
Concezione : Baudouin d'Aumeries
Supporto tecnico e logistico : Manuel Goepfert
Aiuto : Marc-Olivier Méhu
Aiuto per la traduzione : Arnaldo La Scala




FONTI E CREDITI :

   NOAA